Latest Weather Observations for McCluer Island

IDD60801

Issued at 10:31 pm CST Monday 3 August 2015 (issued every 30 minutes, with the page automatically refreshed every 10 minutes)

About weather observations | Map of weather stations | Latest weather observations for NT | Other Formats
Station Details ID: 014274 Name: MCCLUER ISLAND Lat: -11.05 Lon: 132.98 Height: 1.4 m
Data from the previous 72 hours. | See also: Recent months at McCluer Island
Date/Time
CST
Temp
°C
App
Temp
°C
Dew
Point
Rel
Hum
%
Delta-T
°C
Wind Press
QNH
hPa
Press
MSL
hPa
Rain
since 9 am
mm
Dir
 
Spd
km/h
Gust
km/h
Spd
kts
Gust
kts
03/10:30pm 25.6 23.4 21.5 78 2.7 E 35 39 19 21 1014.9 - 0.0
03/10:00pm 25.7 24.5 22.2 81 2.3 E 32 37 17 20 1014.8 - 0.0
03/09:30pm 25.6 24.2 21.9 80 2.5 E 32 35 17 19 1014.8 - 0.0
03/09:00pm 25.7 23.9 22.2 81 2.3 E 35 39 19 21 1014.5 1014.5 0.0
03/08:30pm 25.7 24.5 22.2 81 2.3 E 32 35 17 19 1014.4 - 0.0
03/08:00pm 25.8 25.0 22.3 81 2.3 E 30 35 16 19 1014.2 - 0.0
03/07:30pm 25.5 24.0 21.8 80 2.5 E 32 39 17 21 1013.9 - 0.0
03/07:00pm 25.4 24.3 22.5 84 1.9 E 32 35 17 19 1014.0 - 0.0
03/06:30pm 25.4 24.7 22.5 84 1.9 E 30 35 16 19 1013.8 - 0.0
03/06:00pm 25.1 23.9 22.2 84 1.9 E 32 37 17 20 1013.5 1013.5 0.0
03/05:30pm 25.3 23.9 22.2 83 2.1 E 33 37 18 20 1013.3 - 0.0
03/05:00pm 25.4 24.1 22.1 82 2.2 ESE 32 35 17 19 1013.2 - 0.0
03/04:30pm 25.8 24.5 22.1 80 2.5 ESE 32 37 17 20 1013.2 - 0.0
03/04:00pm 25.7 24.7 22.0 80 2.5 E 30 35 16 19 1013.3 - 0.0
03/03:30pm 26.0 24.5 21.7 77 2.9 ESE 32 35 17 19 1013.4 - 0.0
03/03:00pm 26.4 25.4 22.0 77 2.9 ESE 30 35 16 19 1013.6 1013.6 0.0
03/02:30pm 26.3 25.7 21.9 77 2.9 ESE 28 33 15 18 1013.8 - 0.0
03/02:00pm 26.4 25.1 21.4 74 3.3 ESE 30 37 16 20 1014.2 - 0.0
03/01:30pm 27.0 26.2 21.7 73 3.5 ESE 28 35 15 19 1014.6 - 0.0
03/01:00pm 26.6 25.7 21.4 73 3.5 ESE 28 35 15 19 1014.8 - 0.0
03/12:30pm 26.7 25.9 21.7 74 3.3 ESE 28 35 15 19 1015.1 - 0.0
03/12:00pm 27.7 27.2 21.5 69 4.1 ESE 26 32 14 17 1015.3 1015.3 0.0
03/11:30am 26.5 26.7 21.3 73 3.4 ESE 22 26 12 14 1015.6 - 0.0
03/11:00am 26.2 26.2 21.0 73 3.4 ESE 22 26 12 14 1015.8 - 0.0
03/10:30am 26.1 26.2 21.1 74 3.3 ESE 22 26 12 14 1016.1 - 0.0
03/10:00am 25.9 25.6 21.1 75 3.2 ESE 24 28 13 15 1016.2 - 0.0
03/09:30am 25.7 25.3 20.9 75 3.2 E 24 28 13 15 1016.3 - 0.0
03/09:00am 25.6 25.3 21.1 76 3.0 E 24 28 13 15 1016.2 1016.2 0.0
03/08:30am 25.4 25.4 20.9 76 3.0 E 22 26 12 14 1015.9 - 0.0
03/08:00am 24.9 25.3 21.0 79 2.6 ESE 20 24 11 13 1015.6 - 0.0
03/07:30am 24.5 24.9 21.0 81 2.3 ESE 20 24 11 13 1015.6 - 0.0
03/07:00am 24.6 23.8 20.9 80 2.4 ESE 26 30 14 16 1015.4 - 0.0
03/06:30am 24.2 23.1 21.1 83 2.0 ESE 28 32 15 17 1015.2 - 0.0
03/06:00am 24.0 23.3 20.3 80 2.4 ESE 24 32 13 17 1015.0 1015.0 0.0
03/05:30am 24.3 22.7 20.8 81 2.3 ESE 30 35 16 19 1014.8 - 0.0
03/05:00am 24.6 23.0 21.5 83 2.1 ESE 32 37 17 20 1014.6 - 0.0
03/04:30am 24.3 21.9 21.0 82 2.2 ESE 35 41 19 22 1014.4 - 0.0
03/04:00am 24.4 22.6 21.1 82 2.2 ESE 32 37 17 20 1014.3 - 0.0
03/03:30am 24.4 22.7 21.3 83 2.0 ESE 32 39 17 21 1014.5 - 0.0
03/03:00am 24.5 22.4 21.0 81 2.3 ESE 33 39 18 21 1014.6 1014.6 0.0
03/02:30am 24.6 22.9 21.3 82 2.2 E 32 35 17 19 1014.7 - 0.0
03/02:00am 24.7 22.4 20.6 78 2.7 E 33 39 18 21 1014.8 - 0.0
03/01:30am 24.8 23.4 21.9 84 1.9 E 32 37 17 20 1015.0 - 0.0
03/01:00am 25.0 23.5 21.7 82 2.2 E 32 37 17 20 1015.2 - 0.0
03/12:30am 25.3 23.9 22.0 82 2.2 E 32 39 17 21 1015.4 - 0.0
03/12:00am 25.3 23.9 22.0 82 2.2 E 32 35 17 19 1015.4 1015.4 0.0
 
Date/Time
CST
Temp
°C
App
Temp
°C
Dew
Point
Rel
Hum
%
Delta-T
°C
Wind Press
QNH
hPa
Press
MSL
hPa
Rain
since 9 am
mm
Dir
 
Spd
km/h
Gust
km/h
Spd
kts
Gust
kts
02/11:30pm 25.3 24.2 21.8 81 2.3 E 30 35 16 19 1015.4 - 0.0
02/11:00pm 25.4 24.4 21.9 81 2.3 E 30 35 16 19 1015.5 - 0.0
02/10:30pm 25.6 24.1 21.7 79 2.6 E 32 35 17 19 1015.5 - 0.0
02/10:00pm 25.6 23.7 21.3 77 2.8 E 33 37 18 20 1015.4 - 0.0
02/09:30pm 25.7 24.1 21.6 78 2.7 E 32 35 17 19 1015.1 - 0.0
02/09:00pm 25.4 23.4 21.1 77 2.8 E 33 39 18 21 1014.9 1014.9 0.0
02/08:30pm 25.5 23.8 21.4 78 2.7 E 32 37 17 20 1014.7 - 0.0
02/08:00pm 25.6 24.5 21.7 79 2.6 E 30 33 16 18 1014.3 - 0.0
02/07:30pm 25.6 24.3 21.3 77 2.8 E 30 35 16 19 1014.0 - 0.0
02/07:00pm 25.3 23.7 20.8 76 3.0 E 30 32 16 17 1013.7 - 0.0
02/06:30pm 25.4 24.1 21.3 78 2.7 ESE 30 33 16 18 1013.6 - 0.0
02/06:00pm 25.4 24.0 21.1 77 2.8 E 30 35 16 19 1013.6 1013.6 0.0
02/05:30pm 25.7 24.4 21.4 77 2.8 ESE 30 35 16 19 1013.4 - 0.0
02/05:00pm 25.5 23.7 21.2 77 2.8 ESE 32 35 17 19 1013.3 - 0.0
02/04:30pm 25.6 24.3 21.3 77 2.8 ESE 30 35 16 19 1013.3 - 0.0
02/04:00pm 26.0 25.5 21.4 76 3.1 ESE 26 32 14 17 1013.4 - 0.0
02/03:30pm 26.5 25.2 21.3 73 3.4 ESE 30 32 16 17 1013.5 - 0.0
02/03:00pm 26.2 25.0 21.6 76 3.1 ESE 30 37 16 20 1013.6 1013.6 0.0
02/02:30pm 26.7 25.2 21.0 71 3.8 ESE 30 37 16 20 1013.9 - 0.0
02/02:00pm 26.4 25.0 21.2 73 3.4 ESE 30 35 16 19 1014.5 - 0.0
02/01:30pm 26.7 25.7 21.2 72 3.6 ESE 28 33 15 18 1014.8 - 0.0
02/01:00pm 26.9 25.9 20.5 68 4.2 ESE 26 35 14 19 1015.1 - 0.0
02/12:30pm 26.2 24.8 21.2 74 3.3 ESE 30 35 16 19 1015.5 - 0.0
02/12:00pm 27.5 26.2 20.6 66 4.5 ESE 28 35 15 19 1015.8 1015.8 0.0
02/11:30am 26.5 24.9 20.8 71 3.8 ESE 30 33 16 18 1016.3 - 0.0
02/11:00am 25.8 24.3 21.0 75 3.2 ESE 30 35 16 19 1016.5 - 0.0
02/10:30am 26.1 24.7 21.1 74 3.3 ESE 30 33 16 18 1016.6 - 0.0
02/10:00am 25.2 22.4 20.2 74 3.3 ESE 35 41 19 22 1016.6 - 0.0
02/09:30am 25.4 22.8 20.6 75 3.1 ESE 35 41 19 22 1016.5 - 0.0
02/09:00am 25.1 22.7 20.4 75 3.1 ESE 33 37 18 20 1016.4 1016.4 0.0
02/08:30am 25.0 23.0 20.7 77 2.8 ESE 32 39 17 21 1016.2 - 0.0
02/08:00am 24.6 21.7 20.1 76 2.9 ESE 35 43 19 23 1015.9 - 0.0
02/07:30am 24.3 21.1 20.2 78 2.7 ESE 37 43 20 23 1015.6 - 0.0
02/07:00am 24.2 22.0 20.7 81 2.3 E 33 39 18 21 1015.3 - 0.0
02/06:30am 24.4 21.8 20.7 80 2.4 ESE 35 39 19 21 1014.9 - 0.0
02/06:00am 24.8 21.4 20.7 78 2.7 E 39 43 21 23 1014.6 1014.6 0.0
02/05:30am 24.9 21.8 20.4 76 2.9 E 37 43 20 23 1014.3 - 0.0
02/05:00am 25.2 23.3 20.9 77 2.8 E 32 37 17 20 1014.1 - 0.0
02/04:30am 25.1 22.8 20.1 74 3.2 E 32 39 17 21 1014.0 - 0.0
02/04:00am 24.8 21.9 19.2 71 3.6 E 33 39 18 21 1013.9 - 0.0
02/03:30am 24.9 22.2 20.4 76 2.9 E 35 39 19 21 1013.9 - 0.0
02/03:00am 24.7 22.3 20.4 77 2.8 ESE 33 43 18 23 1014.0 1014.0 0.0
02/02:30am 24.9 22.2 20.4 76 2.9 E 35 41 19 22 1013.9 - 0.0
02/02:00am 24.9 22.3 20.6 77 2.8 E 35 43 19 23 1014.0 - 0.0
02/01:30am 25.1 22.7 20.4 75 3.1 E 33 41 18 22 1014.0 - 0.0
02/01:00am 25.2 23.3 20.9 77 2.8 E 32 37 17 20 1014.2 - 0.0
02/12:30am 25.3 23.7 20.8 76 3.0 E 30 37 16 20 1014.3 - 0.0
02/12:00am 25.4 23.1 20.6 75 3.1 E 33 39 18 21 1014.4 1014.4 0.0
 
Date/Time
CST
Temp
°C
App
Temp
°C
Dew
Point
Rel
Hum
%
Delta-T
°C
Wind Press
QNH
hPa
Press
MSL
hPa
Rain
since 9 am
mm
Dir
 
Spd
km/h
Gust
km/h
Spd
kts
Gust
kts
01/11:30pm 25.4 23.0 20.4 74 3.3 E 33 41 18 22 1014.3 - 0.0
01/11:00pm 25.5 23.6 21.0 76 3.0 E 32 37 17 20 1014.2 - 0.0
01/10:30pm 25.5 23.7 21.2 77 2.8 E 32 35 17 19 1014.2 - 0.0
01/10:00pm 25.6 24.0 21.5 78 2.7 E 32 35 17 19 1014.2 - 0.0
01/09:30pm 25.3 24.8 21.4 79 2.6 E 26 30 14 16 1014.0 - 0.0
01/09:00pm 25.5 24.5 21.2 77 2.8 E 28 33 15 18 1013.6 1013.6 0.0
01/08:30pm 25.6 25.6 21.7 79 2.6 E 24 26 13 14 1013.4 - 0.0
01/08:00pm 25.3 26.0 21.6 80 2.5 E 20 22 11 12 1013.3 - 0.0
01/07:30pm 25.2 26.0 21.3 79 2.6 E 19 22 10 12 1012.9 - 0.0
01/07:00pm 25.1 25.8 21.6 81 2.3 E 20 24 11 13 1012.7 - 0.0
01/06:30pm 25.1 25.4 21.6 81 2.3 E 22 26 12 14 1012.9 - 0.0
01/06:00pm 24.6 22.9 21.3 82 2.2 E 32 35 17 19 1012.9 1012.9 0.0
01/05:30pm 25.1 23.6 21.8 82 2.2 E 32 37 17 20 1012.8 - 0.0
01/05:00pm 25.8 26.0 22.1 80 2.5 E 24 28 13 15 1012.6 - 0.0
01/04:30pm 25.9 26.0 21.8 78 2.7 E 24 28 13 15 1012.5 - 0.0
01/04:00pm 25.8 25.7 21.5 77 2.9 ESE 24 28 13 15 1012.6 - 0.0
01/03:30pm 26.2 25.5 21.8 77 2.9 ESE 28 33 15 18 1012.7 - 0.0
01/03:00pm 25.7 24.8 21.4 77 2.8 ESE 28 37 15 20 1013.0 1013.0 0.0
01/02:30pm 26.0 25.6 21.0 74 3.3 ESE 24 30 13 16 1013.2 - 0.0
01/02:00pm 27.0 27.3 21.5 72 3.7 ESE 22 30 12 16 1013.5 - 0.0
01/01:30pm 26.6 26.8 22.0 76 3.1 ESE 24 30 13 16 1013.7 - 0.0
01/01:00pm 26.0 25.8 21.2 75 3.2 ESE 24 30 13 16 1014.2 - 0.0
01/12:30pm 26.7 26.7 21.7 74 3.3 ESE 24 30 13 16 1014.6 - 0.0
01/12:00pm 26.6 26.8 21.4 73 3.5 ESE 22 30 12 16 1015.0 1015.0 0.0
01/11:30am 26.3 25.6 21.1 73 3.4 ESE 26 32 14 17 1015.2 - 0.0
01/11:00am 26.2 25.8 21.6 76 3.1 ESE 26 33 14 18 1015.5 - 0.0
01/10:30am 25.8 24.3 21.0 75 3.2 ESE 30 33 16 18 1015.6 - 0.0
01/10:00am 25.6 24.3 20.6 74 3.3 ESE 28 33 15 18 1015.8 - 0.0
01/09:30am 25.8 24.6 20.8 74 3.3 ESE 28 32 15 17 1015.6 - 0.0
01/09:00am 25.5 24.8 21.0 76 3.0 ESE 26 30 14 16 1015.5 1015.5 0.0
01/08:30am 24.9 24.0 20.6 77 2.8 E 26 30 14 16 1015.1 - 0.0
01/08:00am 24.6 23.8 20.9 80 2.4 E 26 32 14 17 1014.8 - 0.0
01/07:30am 24.5 24.0 21.4 83 2.0 E 26 30 14 16 1014.4 - 0.0
01/07:00am 24.4 23.4 21.3 83 2.0 E 28 32 15 17 1014.0 - 0.0
01/06:30am 24.3 22.8 21.0 82 2.2 E 30 33 16 18 1013.7 - 0.0
01/06:00am 24.6 22.9 21.3 82 2.2 E 32 37 17 20 1013.7 1013.7 0.0
01/05:30am 24.6 22.6 21.1 81 2.3 ESE 33 39 18 21 1013.6 - 0.0
01/05:00am 24.3 22.2 20.6 80 2.4 ESE 32 39 17 21 1013.4 - 0.0
01/04:30am 24.7 21.9 21.0 80 2.4 ESE 37 43 20 23 1013.2 - 0.0
01/04:00am 24.5 21.9 20.6 79 2.5 ESE 35 43 19 23 1013.2 - 0.0
01/03:30am 24.7 22.0 21.2 81 2.3 ESE 37 44 20 24 1013.2 - 0.0
01/03:00am 24.9 21.8 21.2 80 2.4 E 39 46 21 25 1013.2 1013.2 0.0
01/02:30am 24.9 21.4 21.2 80 2.4 E 41 50 22 27 1013.2 - 0.0
01/02:00am 24.9 21.3 21.0 79 2.6 E 41 46 22 25 1013.4 - 0.0
01/01:30am 24.9 21.9 21.4 81 2.3 E 39 44 21 24 1013.5 - 0.0
01/01:00am 25.2 22.0 21.7 81 2.3 E 41 46 22 25 1013.5 - 0.0
01/12:30am 25.2 22.8 21.9 82 2.2 E 37 44 20 24 1013.8 - 0.0
01/12:00am 25.3 22.5 21.8 81 2.3 E 39 44 21 24 1014.1 1014.1 0.0
 
Date/Time
CST
Temp
°C
App
Temp
°C
Dew
Point
Rel
Hum
%
Delta-T
°C
Wind Press
QNH
hPa
Press
MSL
hPa
Rain
since 9 am
mm
Dir
 
Spd
km/h
Gust
km/h
Spd
kts
Gust
kts
31/11:30pm 25.4 23.8 21.9 81 2.3 E 33 39 18 21 1014.0 - 0.0
31/11:00pm 25.6 24.2 22.3 82 2.2 E 33 37 18 20 1013.9 - 0.0

Other Formats:

Comma delimited format used in spreadsheet applications
http://www.bom.gov.au/fwo/IDD60801/IDD60801.94135.axf

JavaScript Object Notation format (JSON) in row-major order
http://www.bom.gov.au/fwo/IDD60801/IDD60801.94135.json